createdAt,value
2023-01-13T00:00:00.800Z,9.98
2023-01-13T00:02:30.546Z,9.91
2023-01-13T00:05:00.300Z,9.86
2023-01-13T00:07:32.619Z,9.82
2023-01-13T00:10:02.361Z,9.79
2023-01-13T00:12:32.061Z,9.80
2023-01-13T00:15:01.739Z,9.83
2023-01-13T00:17:31.442Z,9.85
2023-01-13T00:20:01.200Z,9.89
2023-01-13T00:22:35.888Z,9.91
2023-01-13T00:25:06.857Z,9.95
2023-01-13T00:27:37.020Z,9.95
2023-01-13T00:30:08.474Z,9.97
2023-01-13T00:32:38.159Z,9.96
2023-01-13T00:35:09.021Z,9.96
2023-01-13T00:37:42.052Z,9.95
2023-01-13T00:40:13.683Z,9.93
2023-01-13T00:42:55.847Z,9.92
2023-01-13T00:45:25.494Z,9.90
2023-01-13T00:47:55.135Z,9.88
2023-01-13T00:50:24.795Z,9.86
2023-01-13T00:52:57.047Z,9.85
2023-01-13T00:55:26.720Z,9.84
2023-01-13T00:57:56.742Z,9.83
2023-01-13T01:00:26.486Z,9.81
2023-01-13T01:02:56.210Z,9.80
2023-01-13T01:05:25.958Z,9.78
2023-01-13T01:07:58.226Z,9.77
2023-01-13T01:10:27.907Z,9.76
2023-01-13T01:12:57.538Z,9.75
2023-01-13T01:15:27.216Z,9.74
2023-01-13T01:17:57.278Z,9.72
2023-01-13T01:20:26.995Z,9.71
2023-01-13T01:22:59.856Z,9.71
2023-01-13T01:25:29.511Z,9.69
2023-01-13T01:27:59.184Z,9.68
2023-01-13T01:30:28.901Z,9.65
2023-01-13T01:32:59.630Z,9.65
2023-01-13T01:35:29.295Z,9.63
2023-01-13T01:38:01.543Z,9.63
2023-01-13T01:40:31.175Z,9.62
2023-01-13T01:43:13.307Z,9.61
2023-01-13T01:45:43.031Z,9.58
2023-01-13T01:48:13.266Z,9.57
2023-01-13T01:50:43.193Z,9.54
2023-01-13T01:53:18.669Z,9.46
2023-01-13T01:55:49.010Z,9.37
2023-01-13T01:58:21.216Z,9.29
2023-01-13T02:00:51.125Z,9.22
2023-01-13T02:03:21.047Z,9.17
2023-01-13T02:05:50.732Z,9.13
2023-01-13T02:08:23.937Z,9.09
2023-01-13T02:10:57.086Z,9.07
2023-01-13T02:13:24.263Z,9.01
2023-01-13T02:15:58.910Z,8.96
2023-01-13T02:18:46.170Z,8.92
2023-01-13T02:21:35.119Z,8.90
2023-01-13T02:24:44.998Z,8.86
2023-01-13T02:27:39.914Z,8.83
2023-01-13T02:30:26.622Z,8.78
2023-01-13T02:33:14.264Z,8.69
2023-01-13T02:35:49.284Z,8.62
2023-01-13T02:38:20.670Z,8.56
2023-01-13T02:40:57.000Z,8.52
2023-01-13T02:43:43.286Z,8.50
2023-01-13T02:46:18.424Z,8.48
2023-01-13T02:48:49.011Z,8.43
2023-01-13T02:51:21.370Z,8.36
2023-01-13T02:53:53.920Z,8.31
2023-01-13T02:56:24.611Z,8.24
2023-01-13T02:58:54.378Z,8.16
2023-01-13T03:01:26.991Z,8.06
2023-01-13T03:03:56.478Z,7.95
2023-01-13T03:06:42.057Z,7.84
2023-01-13T03:09:14.996Z,7.72
2023-01-13T03:11:51.341Z,7.71
2023-01-13T03:14:28.589Z,7.71
2023-01-13T03:17:11.717Z,7.73
2023-01-13T03:19:46.189Z,7.75
2023-01-13T03:22:22.684Z,7.78
2023-01-13T03:24:54.841Z,7.80
2023-01-13T03:27:28.791Z,7.82
2023-01-13T03:30:01.937Z,7.81
2023-01-13T03:32:37.194Z,7.81
2023-01-13T03:35:11.875Z,7.79
2023-01-13T03:37:44.041Z,7.77
2023-01-13T03:40:16.970Z,7.77
2023-01-13T03:43:09.737Z,7.79
2023-01-13T03:45:39.695Z,7.77
2023-01-13T03:48:15.303Z,7.71
2023-01-13T03:50:50.117Z,7.62
2023-01-13T03:53:22.547Z,7.55
2023-01-13T03:55:55.548Z,7.47
2023-01-13T03:58:27.408Z,7.42
2023-01-13T04:01:01.256Z,7.43
2023-01-13T04:03:39.032Z,7.46
2023-01-13T04:06:16.990Z,7.46
2023-01-13T04:08:51.771Z,7.43
2023-01-13T04:11:22.668Z,7.36
2023-01-13T04:13:52.505Z,7.28
2023-01-13T04:16:22.144Z,7.22
2023-01-13T04:18:54.275Z,7.16
2023-01-13T04:21:24.166Z,7.05
2023-01-13T04:23:54.016Z,6.99
2023-01-13T04:26:24.461Z,6.95
2023-01-13T04:28:54.796Z,6.91
2023-01-13T04:31:24.617Z,6.89
2023-01-13T04:33:56.839Z,6.94
2023-01-13T04:36:27.721Z,7.06
2023-01-13T04:38:57.467Z,7.18
2023-01-13T04:41:27.079Z,7.27
2023-01-13T04:43:56.618Z,7.32
2023-01-13T04:46:26.233Z,7.34
2023-01-13T04:48:58.456Z,7.34
2023-01-13T04:51:28.055Z,7.37
2023-01-13T04:53:57.600Z,7.39
2023-01-13T04:56:27.175Z,7.47
2023-01-13T04:58:56.747Z,7.55
2023-01-13T05:01:26.486Z,7.63
2023-01-13T05:03:58.682Z,7.73
2023-01-13T05:06:28.260Z,7.80
2023-01-13T05:08:57.959Z,7.86
2023-01-13T05:11:40.032Z,7.94
2023-01-13T05:14:22.108Z,8.00
2023-01-13T05:17:05.957Z,8.03
2023-01-13T05:19:40.726Z,8.04
2023-01-13T05:22:22.883Z,8.06
2023-01-13T05:25:04.909Z,8.10
2023-01-13T05:27:35.531Z,8.14
2023-01-13T05:30:05.145Z,8.17
2023-01-13T05:32:34.735Z,8.20
2023-01-13T05:35:07.676Z,8.21
2023-01-13T05:37:37.360Z,8.22
2023-01-13T05:40:20.674Z,8.24
2023-01-13T05:43:02.707Z,8.27
2023-01-13T05:45:33.011Z,8.29
2023-01-13T05:48:02.611Z,8.28
2023-01-13T05:50:34.776Z,8.26
2023-01-13T05:53:07.953Z,8.23
2023-01-13T05:55:37.517Z,8.19
2023-01-13T05:58:07.094Z,8.16
2023-01-13T06:00:37.143Z,8.14
2023-01-13T06:03:07.048Z,8.11
2023-01-13T06:05:39.366Z,8.07
2023-01-13T06:08:10.006Z,8.01
2023-01-13T06:10:39.663Z,7.94
2023-01-13T06:13:09.267Z,7.88
2023-01-13T06:15:38.823Z,7.86
2023-01-13T06:18:08.463Z,7.84
2023-01-13T06:20:40.599Z,7.86
2023-01-13T06:23:11.932Z,7.87
2023-01-13T06:25:47.578Z,7.87
2023-01-13T06:28:17.271Z,7.89
2023-01-13T06:30:51.066Z,7.91
2023-01-13T06:33:23.885Z,7.92
2023-01-13T06:35:59.454Z,7.95
2023-01-13T06:38:31.330Z,7.95
2023-01-13T06:41:00.917Z,7.95
2023-01-13T06:43:27.962Z,7.94
2023-01-13T06:45:58.949Z,7.92
2023-01-13T06:48:33.125Z,7.90
2023-01-13T06:51:06.064Z,7.87
2023-01-13T06:53:35.723Z,7.82
2023-01-13T06:56:05.288Z,7.76
2023-01-13T06:58:34.879Z,7.72
2023-01-13T07:01:04.684Z,7.69
2023-01-13T07:03:34.328Z,7.65
2023-01-13T07:06:06.608Z,7.61
2023-01-13T07:08:36.260Z,7.57
2023-01-13T07:11:05.932Z,7.53
2023-01-13T07:13:49.837Z,7.51
2023-01-13T07:16:19.423Z,7.49
2023-01-13T07:18:49.155Z,7.47
2023-01-13T07:21:22.093Z,7.46
2023-01-13T07:23:51.668Z,7.43
2023-01-13T07:26:21.230Z,7.38
2023-01-13T07:28:50.901Z,7.34
2023-01-13T07:31:22.162Z,7.26
2023-01-13T07:33:51.746Z,7.23
2023-01-13T07:36:23.903Z,7.18
2023-01-13T07:38:54.924Z,7.15
2023-01-13T07:41:37.066Z,7.10
2023-01-13T07:44:10.566Z,7.08
2023-01-13T07:46:40.868Z,7.06
2023-01-13T07:49:10.988Z,7.04
2023-01-13T07:51:43.611Z,7.03
2023-01-13T07:54:13.191Z,7.01
2023-01-13T07:56:42.758Z,6.99
2023-01-13T07:59:12.348Z,7.02
2023-01-13T08:01:41.986Z,7.01
2023-01-13T08:04:11.590Z,7.01
2023-01-13T08:06:44.761Z,7.07
2023-01-13T08:09:14.443Z,7.18
2023-01-13T08:11:44.010Z,7.27
2023-01-13T08:14:13.575Z,7.29
2023-01-13T08:16:43.220Z,7.36
2023-01-13T08:19:12.882Z,7.47
2023-01-13T08:21:45.035Z,7.59
2023-01-13T08:24:14.833Z,7.69
2023-01-13T08:26:44.394Z,7.75
2023-01-13T08:29:15.152Z,7.83
2023-01-13T08:31:44.810Z,7.91
2023-01-13T08:34:14.477Z,7.97
2023-01-13T08:36:46.684Z,8.05
2023-01-13T08:39:16.260Z,8.10
2023-01-13T08:41:58.758Z,8.16
2023-01-13T08:44:29.777Z,8.18
2023-01-13T08:47:00.208Z,8.22
2023-01-13T08:49:29.807Z,8.23
2023-01-13T08:52:01.948Z,8.24
2023-01-13T08:54:31.534Z,8.26
2023-01-13T08:57:03.293Z,8.27
2023-01-13T08:59:33.137Z,8.29
2023-01-13T09:02:03.532Z,8.30
2023-01-13T09:04:33.440Z,8.30
2023-01-13T09:07:05.602Z,8.33
2023-01-13T09:09:35.181Z,8.35
2023-01-13T09:12:17.413Z,8.38
2023-01-13T09:14:47.000Z,8.41
2023-01-13T09:17:17.102Z,8.43
2023-01-13T09:19:47.127Z,8.46
2023-01-13T09:22:20.578Z,8.46
2023-01-13T09:24:50.131Z,8.48
2023-01-13T09:27:19.669Z,8.49
2023-01-13T09:29:49.675Z,8.52
2023-01-13T09:32:19.366Z,8.57
2023-01-13T09:35:01.432Z,8.61
2023-01-13T09:37:36.774Z,8.62
2023-01-13T09:40:08.373Z,8.62
2023-01-13T09:42:57.743Z,8.64
2023-01-13T09:45:29.360Z,8.66
2023-01-13T09:48:04.292Z,8.68
2023-01-13T09:50:47.748Z,8.68
2023-01-13T09:53:24.505Z,8.68
2023-01-13T09:55:54.139Z,8.71
2023-01-13T09:58:24.912Z,8.75
2023-01-13T10:01:06.207Z,8.79
2023-01-13T10:03:36.556Z,8.82
2023-01-13T10:06:13.903Z,8.88
2023-01-13T10:08:47.275Z,8.90
2023-01-13T10:11:36.407Z,8.92
2023-01-13T10:14:14.510Z,8.93
2023-01-13T10:16:48.642Z,8.97
2023-01-13T10:19:22.679Z,9.01
2023-01-13T10:22:24.601Z,9.07
2023-01-13T10:25:23.517Z,9.10
2023-01-13T10:27:55.280Z,9.11
2023-01-13T10:30:31.097Z,9.12
2023-01-13T10:33:02.747Z,9.11
2023-01-13T10:35:54.364Z,9.10
2023-01-13T10:38:26.090Z,9.09
2023-01-13T10:40:59.861Z,9.08
2023-01-13T10:43:30.887Z,9.07
2023-01-13T10:46:06.684Z,9.07
2023-01-13T10:48:39.142Z,9.08
2023-01-13T10:51:26.833Z,9.11
2023-01-13T10:53:59.160Z,9.12
2023-01-13T10:56:33.530Z,9.12
2023-01-13T10:59:16.940Z,9.09
2023-01-13T11:01:58.733Z,9.09
2023-01-13T11:04:33.622Z,9.09
2023-01-13T11:07:04.014Z,9.11
2023-01-13T11:09:34.498Z,9.16
2023-01-13T11:12:06.952Z,9.25
2023-01-13T11:14:40.134Z,9.35
2023-01-13T11:17:19.198Z,9.42
2023-01-13T11:19:53.283Z,9.49
2023-01-13T11:22:23.475Z,9.54
2023-01-13T11:24:57.094Z,9.58
2023-01-13T11:27:39.090Z,9.61
2023-01-13T11:30:15.585Z,9.63
2023-01-13T11:32:56.495Z,9.59
2023-01-13T11:35:27.078Z,9.57
2023-01-13T11:37:58.499Z,9.54
2023-01-13T11:40:32.716Z,9.48
2023-01-13T11:43:11.971Z,9.45
2023-01-13T11:45:45.389Z,9.44
2023-01-13T11:48:17.354Z,9.43
2023-01-13T11:50:51.339Z,9.39
2023-01-13T11:53:30.771Z,9.34
2023-01-13T11:56:11.778Z,9.26
2023-01-13T11:58:58.274Z,9.20
2023-01-13T12:01:39.023Z,9.14
2023-01-13T12:04:24.264Z,9.04
2023-01-13T12:07:00.319Z,8.87
2023-01-13T12:09:36.751Z,8.74
2023-01-13T12:12:23.059Z,8.71
2023-01-13T12:15:25.847Z,8.78
2023-01-13T12:18:08.483Z,8.87
2023-01-13T12:20:43.459Z,8.92
2023-01-13T12:23:20.865Z,8.95
2023-01-13T12:25:53.474Z,9.00
2023-01-13T12:28:27.880Z,9.02
2023-01-13T12:31:02.828Z,9.00
2023-01-13T12:33:46.441Z,8.98
2023-01-13T12:36:20.185Z,8.99
2023-01-13T12:38:52.027Z,8.97
2023-01-13T12:41:32.573Z,8.89
2023-01-13T12:44:14.803Z,8.76
2023-01-13T12:46:55.958Z,8.60
2023-01-13T12:49:27.912Z,8.42
2023-01-13T12:52:18.327Z,8.23
2023-01-13T12:55:21.988Z,8.09
2023-01-13T12:58:05.323Z,7.94
2023-01-13T13:00:38.295Z,7.78
2023-01-13T13:03:31.458Z,7.58
2023-01-13T13:06:05.179Z,7.39
2023-01-13T13:09:04.093Z,7.20
2023-01-13T13:12:07.077Z,7.05
2023-01-13T13:15:07.720Z,6.97
2023-01-13T13:17:47.564Z,6.89
2023-01-13T13:20:51.037Z,6.83
2023-01-13T13:23:56.123Z,6.77
2023-01-13T13:26:33.105Z,6.75
2023-01-13T13:29:15.583Z,6.74
2023-01-13T13:32:03.207Z,6.76
2023-01-13T13:34:37.060Z,6.78
2023-01-13T13:38:00.475Z,6.78
2023-01-13T13:40:47.994Z,6.76
2023-01-13T13:43:30.781Z,6.74
2023-01-13T13:46:12.890Z,6.76
2023-01-13T13:48:42.537Z,6.75
2023-01-13T13:51:27.946Z,6.77
2023-01-13T13:53:59.387Z,6.77
2023-01-13T13:56:32.396Z,6.79
2023-01-13T13:59:02.029Z,6.80
2023-01-13T14:01:37.687Z,6.81
2023-01-13T14:04:10.650Z,6.84
2023-01-13T14:06:40.270Z,6.87
2023-01-13T14:09:18.800Z,6.89
2023-01-13T14:12:00.875Z,6.92
2023-01-13T14:14:31.219Z,6.94
2023-01-13T14:17:00.977Z,6.98
2023-01-13T14:19:33.890Z,7.01
2023-01-13T14:22:04.472Z,7.05
2023-01-13T14:24:34.806Z,7.10
2023-01-13T14:27:17.801Z,7.13
2023-01-13T14:29:47.759Z,7.16
2023-01-13T14:32:20.704Z,7.21
2023-01-13T14:34:50.363Z,7.25
2023-01-13T14:37:28.726Z,7.28
2023-01-13T14:39:58.342Z,7.30
2023-01-13T14:42:31.670Z,7.29
2023-01-13T14:45:02.350Z,7.27
2023-01-13T14:47:34.028Z,7.27
2023-01-13T14:50:06.317Z,7.25
2023-01-13T14:52:38.847Z,7.25
2023-01-13T14:55:24.187Z,7.26
2023-01-13T14:57:57.071Z,7.27
2023-01-13T15:00:29.447Z,7.26
2023-01-13T15:03:09.524Z,7.25
2023-01-13T15:05:52.265Z,7.24
2023-01-13T15:08:30.031Z,7.21
2023-01-13T15:11:02.442Z,7.18
2023-01-13T15:13:42.656Z,7.14
2023-01-13T15:16:20.426Z,7.12
2023-01-13T15:18:50.341Z,7.10
2023-01-13T15:21:20.137Z,7.09
2023-01-13T15:23:50.184Z,7.07
2023-01-13T15:26:25.100Z,7.07
2023-01-13T15:28:58.425Z,7.01
2023-01-13T15:31:28.533Z,6.94
2023-01-13T15:33:58.877Z,6.89
2023-01-13T15:36:30.092Z,6.85
2023-01-13T15:39:00.617Z,6.82
2023-01-13T15:41:42.853Z,6.81
2023-01-13T15:44:29.732Z,6.80
2023-01-13T15:46:59.596Z,6.81
2023-01-13T15:49:34.934Z,6.82
2023-01-13T15:52:05.643Z,6.82
2023-01-13T15:54:35.215Z,6.83
2023-01-13T15:57:04.876Z,6.85
2023-01-13T15:59:37.065Z,6.87
2023-01-13T16:02:06.614Z,6.88
2023-01-13T16:04:36.216Z,6.89
2023-01-13T16:07:05.774Z,6.92
2023-01-13T16:09:35.358Z,6.93
2023-01-13T16:12:04.896Z,6.95
2023-01-13T16:14:37.077Z,6.97
2023-01-13T16:17:09.332Z,7.00
2023-01-13T16:19:38.920Z,7.03
2023-01-13T16:22:08.503Z,7.04
2023-01-13T16:24:38.499Z,7.06
2023-01-13T16:27:14.237Z,7.06
2023-01-13T16:29:47.185Z,7.08
2023-01-13T16:32:16.995Z,7.11
2023-01-13T16:34:46.861Z,7.13
2023-01-13T16:37:22.363Z,7.15
2023-01-13T16:39:52.774Z,7.16
2023-01-13T16:42:22.884Z,7.16
2023-01-13T16:44:55.738Z,7.16
2023-01-13T16:47:25.445Z,7.17
2023-01-13T16:49:55.035Z,7.18
2023-01-13T16:52:24.594Z,7.19
2023-01-13T16:54:54.174Z,7.20
2023-01-13T16:57:24.126Z,7.21
2023-01-13T16:59:56.335Z,7.19
2023-01-13T17:02:25.924Z,7.19
2023-01-13T17:04:55.511Z,7.19
2023-01-13T17:07:25.249Z,7.19
2023-01-13T17:09:55.307Z,7.20
2023-01-13T17:12:24.882Z,7.20
2023-01-13T17:14:57.516Z,7.20
2023-01-13T17:17:29.421Z,7.20
2023-01-13T17:19:59.936Z,7.18
2023-01-13T17:22:30.820Z,7.19
2023-01-13T17:25:00.548Z,7.19
2023-01-13T17:27:30.149Z,7.20
2023-01-13T17:30:02.329Z,7.20
2023-01-13T17:32:31.891Z,7.19
2023-01-13T17:35:02.669Z,7.16
2023-01-13T17:37:32.469Z,7.14
2023-01-13T17:40:02.539Z,7.09
2023-01-13T17:42:32.146Z,7.05
2023-01-13T17:45:04.379Z,7.02
2023-01-13T17:47:33.974Z,6.98
2023-01-13T17:50:04.157Z,6.94
2023-01-13T17:52:33.785Z,6.93
2023-01-13T17:55:03.400Z,6.91
2023-01-13T17:57:33.086Z,6.91
2023-01-13T18:00:06.360Z,6.90
2023-01-13T18:02:41.821Z,6.89
2023-01-13T18:05:13.121Z,6.91
2023-01-13T18:07:42.785Z,6.90
2023-01-13T18:10:14.740Z,6.91
2023-01-13T18:12:44.345Z,6.93
2023-01-13T18:15:16.592Z,6.97
2023-01-13T18:17:47.336Z,6.99
2023-01-13T18:20:29.635Z,7.01
2023-01-13T18:23:11.698Z,7.04
2023-01-13T18:25:54.798Z,7.06
2023-01-13T18:28:24.384Z,7.09
2023-01-13T18:30:56.622Z,7.11
2023-01-13T18:33:26.558Z,7.15
2023-01-13T18:35:56.173Z,7.19
2023-01-13T18:38:25.759Z,7.19
2023-01-13T18:40:55.340Z,7.21
2023-01-13T18:43:22.346Z,7.22
2023-01-13T18:45:52.800Z,7.25
2023-01-13T18:48:24.998Z,7.26
2023-01-13T18:50:54.580Z,7.29
2023-01-13T18:53:24.215Z,7.31
2023-01-13T18:55:53.899Z,7.32
2023-01-13T18:58:25.842Z,7.34
2023-01-13T19:01:07.244Z,7.34
2023-01-13T19:03:40.250Z,7.35
2023-01-13T19:06:14.429Z,7.36
2023-01-13T19:08:54.913Z,7.37
2023-01-13T19:11:26.872Z,7.39
2023-01-13T19:13:58.689Z,7.40
2023-01-13T19:16:28.419Z,7.41
2023-01-13T19:19:00.585Z,7.43
2023-01-13T19:21:30.201Z,7.45
2023-01-13T19:23:59.844Z,7.46
2023-01-13T19:26:29.468Z,7.49
2023-01-13T19:28:59.444Z,7.49
2023-01-13T19:31:29.067Z,7.48
2023-01-13T19:34:01.230Z,7.48
2023-01-13T19:36:30.854Z,7.47
2023-01-13T19:39:01.157Z,7.48
2023-01-13T19:41:43.260Z,7.49
2023-01-13T19:44:26.814Z,7.47
2023-01-13T19:46:56.394Z,7.47
2023-01-13T19:49:28.560Z,7.48
2023-01-13T19:51:58.198Z,7.49
2023-01-13T19:54:27.921Z,7.50
2023-01-13T19:56:57.504Z,7.50
2023-01-13T19:59:29.234Z,7.52
2023-01-13T20:02:00.233Z,7.54
2023-01-13T20:04:37.560Z,7.54
2023-01-13T20:07:07.552Z,7.54
2023-01-13T20:09:38.329Z,7.53
2023-01-13T20:12:11.713Z,7.53
2023-01-13T20:14:41.387Z,7.48
2023-01-13T20:17:11.302Z,7.44
2023-01-13T20:19:43.567Z,7.41
2023-01-13T20:22:14.074Z,7.38
2023-01-13T20:24:43.656Z,7.36
2023-01-13T20:27:13.286Z,7.36
2023-01-13T20:29:42.852Z,7.35
2023-01-13T20:32:12.416Z,7.37
2023-01-13T20:34:44.565Z,7.41
2023-01-13T20:37:14.156Z,7.42
2023-01-13T20:39:44.591Z,7.43
2023-01-13T20:42:26.649Z,7.43
2023-01-13T20:44:56.222Z,7.43
2023-01-13T20:47:25.823Z,7.44
2023-01-13T20:49:58.946Z,7.45
2023-01-13T20:52:29.039Z,7.47
2023-01-13T20:54:58.618Z,7.48
2023-01-13T20:57:28.198Z,7.48
2023-01-13T20:59:57.768Z,7.48
2023-01-13T21:02:27.378Z,7.47
2023-01-13T21:04:59.601Z,7.45
2023-01-13T21:07:29.206Z,7.45
2023-01-13T21:09:58.792Z,7.44
2023-01-13T21:12:40.822Z,7.41
2023-01-13T21:15:22.913Z,7.33
2023-01-13T21:18:06.393Z,7.31
2023-01-13T21:20:40.108Z,7.25
2023-01-13T21:23:10.912Z,7.20
2023-01-13T21:25:41.152Z,7.16
2023-01-13T21:28:13.503Z,7.10
2023-01-13T21:30:44.532Z,7.04
2023-01-13T21:33:15.965Z,6.97
2023-01-13T21:35:48.121Z,6.93
2023-01-13T21:38:17.985Z,6.90
2023-01-13T21:40:47.565Z,6.89
2023-01-13T21:43:29.607Z,6.89
2023-01-13T21:46:11.692Z,6.90
2023-01-13T21:48:41.314Z,6.92
2023-01-13T21:51:13.488Z,6.93
2023-01-13T21:53:43.103Z,6.93
2023-01-13T21:56:12.645Z,6.97
2023-01-13T21:58:42.469Z,6.98
2023-01-13T22:01:12.474Z,6.98
2023-01-13T22:03:55.382Z,7.01
2023-01-13T22:06:28.068Z,7.02
2023-01-13T22:08:59.992Z,7.04
2023-01-13T22:11:29.688Z,7.06
2023-01-13T22:14:09.387Z,7.09
2023-01-13T22:16:41.868Z,7.10
2023-01-13T22:19:12.491Z,7.11
2023-01-13T22:21:44.716Z,7.13
2023-01-13T22:24:14.534Z,7.14
2023-01-13T22:26:44.139Z,7.17
2023-01-13T22:29:13.788Z,7.16
2023-01-13T22:31:43.444Z,7.11
2023-01-13T22:34:14.863Z,7.09
2023-01-13T22:36:47.018Z,7.08
2023-01-13T22:39:16.603Z,7.08
2023-01-13T22:41:46.177Z,7.07
2023-01-13T22:44:16.012Z,7.05
2023-01-13T22:46:45.568Z,7.06
2023-01-13T22:49:15.851Z,7.06
2023-01-13T22:51:48.632Z,7.07
2023-01-13T22:54:20.208Z,7.06
2023-01-13T22:56:49.861Z,7.06
2023-01-13T22:59:21.544Z,7.06
2023-01-13T23:01:51.160Z,7.07
2023-01-13T23:04:20.883Z,7.06
2023-01-13T23:06:53.113Z,7.05
2023-01-13T23:09:22.732Z,7.04
2023-01-13T23:11:53.641Z,7.02
2023-01-13T23:14:23.218Z,7.01
2023-01-13T23:16:53.089Z,7.01
2023-01-13T23:19:22.824Z,7.01
2023-01-13T23:21:54.989Z,7.02
2023-01-13T23:24:27.938Z,7.01
2023-01-13T23:26:57.514Z,7.01
2023-01-13T23:29:27.099Z,7.01
2023-01-13T23:31:56.684Z,7.02
2023-01-13T23:34:26.348Z,7.01
2023-01-13T23:36:58.525Z,7.01
2023-01-13T23:39:28.480Z,7.02
2023-01-13T23:41:59.464Z,7.02
2023-01-13T23:44:29.542Z,7.04
2023-01-13T23:46:59.122Z,7.05
2023-01-13T23:49:28.745Z,7.05
2023-01-13T23:52:00.945Z,7.04
2023-01-13T23:54:30.539Z,7.04
2023-01-13T23:57:00.628Z,7.04
2023-01-13T23:59:30.219Z,7.03
